createdAt,value
2018-10-03T00:00:19.668Z,97481.49
2018-10-03T00:00:51.273Z,97489.16
2018-10-03T00:01:22.864Z,97482.35
2018-10-03T00:01:54.464Z,97489.61
2018-10-03T00:02:26.066Z,97491.33
2018-10-03T00:02:57.660Z,97483.27
2018-10-03T00:03:29.248Z,97491.41
2018-10-03T00:04:00.836Z,97483.32
2018-10-03T00:04:32.463Z,97480.34
2018-10-03T00:05:04.067Z,97480.86
2018-10-03T00:05:35.665Z,97488.09
2018-10-03T00:06:07.256Z,97488.12
2018-10-03T00:06:38.848Z,97483.91
2018-10-03T00:07:10.436Z,97491.17
2018-10-03T00:07:42.029Z,97491.63
2018-10-03T00:08:13.624Z,97493.34
2018-10-03T00:08:45.231Z,97493.40
2018-10-03T00:09:16.810Z,97499.38
2018-10-03T00:09:48.442Z,97490.84
2018-10-03T00:10:20.048Z,97494.27
2018-10-03T00:10:51.659Z,97482.83
2018-10-03T00:11:23.248Z,97485.39
2018-10-03T00:11:54.840Z,97490.07
2018-10-03T00:12:26.437Z,97494.42
2018-10-03T00:12:58.024Z,97497.42
2018-10-03T00:13:29.602Z,97486.34
2018-10-03T00:14:01.246Z,97492.77
2018-10-03T00:14:32.806Z,97494.09
2018-10-03T00:15:04.424Z,97485.99
2018-10-03T00:15:36.033Z,97487.29
2018-10-03T00:16:07.638Z,97488.59
2018-10-03T00:16:39.232Z,97487.31
2018-10-03T00:17:10.834Z,97472.44
2018-10-03T00:17:42.429Z,97481.42
2018-10-03T00:18:14.020Z,97481.91
2018-10-03T00:18:45.595Z,97484.06
2018-10-03T00:19:17.203Z,97482.38
2018-10-03T00:19:48.832Z,97474.69
2018-10-03T00:20:20.434Z,97478.13
2018-10-03T00:20:52.024Z,97473.92
2018-10-03T00:21:23.617Z,97489.70
2018-10-03T00:21:55.222Z,97479.88
2018-10-03T00:22:26.816Z,97486.30
2018-10-03T00:22:58.418Z,97478.20
2018-10-03T00:23:30.165Z,97493.99
2018-10-03T00:24:01.633Z,97485.95
2018-10-03T00:24:33.238Z,97488.45
2018-10-03T00:25:04.875Z,97487.23
2018-10-03T00:25:36.483Z,97483.39
2018-10-03T00:26:08.087Z,97480.41
2018-10-03T00:26:39.702Z,97488.10
2018-10-03T00:27:11.307Z,97488.56
2018-10-03T00:27:42.915Z,97481.73
2018-10-03T00:28:14.513Z,97492.82
2018-10-03T00:28:46.108Z,97480.08
2018-10-03T00:29:17.692Z,97485.62
2018-10-03T00:29:49.426Z,97487.33
2018-10-03T00:30:21.035Z,97486.07
2018-10-03T00:30:52.646Z,97488.63
2018-10-03T00:31:25.264Z,97486.52
2018-10-03T00:31:56.866Z,97488.63
2018-10-03T00:32:28.465Z,97484.36
2018-10-03T00:33:00.064Z,97478.81
2018-10-03T00:33:31.650Z,97479.25
2018-10-03T00:34:03.256Z,97481.39
2018-10-03T00:34:34.864Z,97482.66
2018-10-03T00:35:06.484Z,97483.08
2018-10-03T00:35:38.087Z,97479.75
2018-10-03T00:36:09.681Z,97483.94
2018-10-03T00:36:41.262Z,97483.50
2018-10-03T00:37:12.843Z,97483.91
2018-10-03T00:37:44.450Z,97486.05
2018-10-03T00:38:16.054Z,97476.66
2018-10-03T00:38:47.649Z,97480.45
2018-10-03T00:39:19.227Z,97483.00
2018-10-03T00:39:50.824Z,97482.14
2018-10-03T00:40:22.435Z,97473.17
2018-10-03T00:40:54.046Z,97477.01
2018-10-03T00:41:25.626Z,97480.41
2018-10-03T00:41:57.231Z,97476.98
2018-10-03T00:42:28.813Z,97481.22
2018-10-03T00:43:00.415Z,97479.92
2018-10-03T00:43:32.028Z,97479.04
2018-10-03T00:44:03.621Z,97482.02
2018-10-03T00:44:35.230Z,97477.27
2018-10-03T00:45:06.862Z,97482.81
2018-10-03T00:45:38.466Z,97484.51
2018-10-03T00:46:10.070Z,97485.75
2018-10-03T00:46:41.675Z,97482.72
2018-10-03T00:47:13.282Z,97487.84
2018-10-03T00:47:44.877Z,97481.51
2018-10-03T00:48:16.468Z,97492.09
2018-10-03T00:48:48.060Z,97475.02
2018-10-03T00:49:19.667Z,97480.10
2018-10-03T00:49:51.251Z,97483.45
2018-10-03T00:50:22.868Z,97477.40
2018-10-03T00:50:54.478Z,97485.23
2018-10-03T00:51:26.068Z,97488.97
2018-10-03T00:51:57.664Z,97472.05
2018-10-03T00:52:29.266Z,97492.56
2018-10-03T00:53:00.859Z,97488.06
2018-10-03T00:53:32.453Z,97491.20
2018-10-03T00:54:04.049Z,97483.63
2018-10-03T00:54:35.644Z,97490.47
2018-10-03T00:55:07.294Z,97482.33
2018-10-03T00:55:38.888Z,97492.02
2018-10-03T00:56:10.481Z,97485.06
2018-10-03T00:56:42.072Z,97493.47
2018-10-03T00:57:13.674Z,97491.70
2018-10-03T00:57:45.278Z,97492.98
2018-10-03T00:58:16.882Z,97491.19
2018-10-03T00:58:48.476Z,97491.59
2018-10-03T00:59:20.056Z,97498.75
2018-10-03T00:59:51.662Z,97496.62
2018-10-03T01:00:23.279Z,97487.23
2018-10-03T01:00:54.854Z,97498.64
2018-10-03T01:01:26.453Z,97491.83
2018-10-03T01:01:58.051Z,97492.24
2018-10-03T01:02:29.639Z,97496.92
2018-10-03T01:03:01.232Z,97495.17
2018-10-03T01:03:32.838Z,97488.39
2018-10-03T01:04:04.418Z,97495.17
2018-10-03T01:04:36.016Z,97498.13
2018-10-03T01:05:07.638Z,97490.88
2018-10-03T01:05:39.250Z,97494.64
2018-10-03T01:06:10.840Z,97497.61
2018-10-03T01:06:42.429Z,97490.77
2018-10-03T01:07:14.035Z,97481.36
2018-10-03T01:07:45.619Z,97488.97
2018-10-03T01:08:17.215Z,97479.15
2018-10-03T01:08:48.809Z,97494.05
2018-10-03T01:09:20.405Z,97474.84
2018-10-03T01:09:52.168Z,97494.91
2018-10-03T01:10:23.803Z,97491.49
2018-10-03T01:10:55.392Z,97481.69
2018-10-03T01:11:26.988Z,97491.94
2018-10-03T01:11:58.566Z,97495.77
2018-10-03T01:12:30.156Z,97482.12
2018-10-03T01:13:01.759Z,97485.53
2018-10-03T01:13:33.374Z,97484.29
2018-10-03T01:14:04.979Z,97485.63
2018-10-03T01:14:36.576Z,97490.36
2018-10-03T01:15:08.169Z,97502.27
2018-10-03T01:15:39.798Z,97494.19
2018-10-03T01:16:11.392Z,97489.92
2018-10-03T01:16:42.989Z,97498.47
2018-10-03T01:17:14.566Z,97498.91
2018-10-03T01:17:46.166Z,97498.13
2018-10-03T01:18:17.766Z,97489.99
2018-10-03T01:18:49.360Z,97492.58
2018-10-03T01:19:20.961Z,97490.44
2018-10-03T01:19:52.574Z,97498.48
2018-10-03T01:20:24.293Z,97504.45
2018-10-03T01:20:55.899Z,97494.63
2018-10-03T01:21:27.497Z,97505.70
2018-10-03T01:21:59.090Z,97506.98
2018-10-03T01:22:30.686Z,97506.98
2018-10-03T01:23:02.288Z,97500.59
2018-10-03T01:23:33.880Z,97499.73
2018-10-03T01:24:05.472Z,97490.33
2018-10-03T01:24:37.069Z,97498.00
2018-10-03T01:25:08.665Z,97501.42
2018-10-03T01:25:40.284Z,97500.98
2018-10-03T01:26:11.863Z,97506.11
2018-10-03T01:26:43.467Z,97509.53
2018-10-03T01:27:15.075Z,97503.13
2018-10-03T01:27:46.674Z,97501.42
2018-10-03T01:28:18.268Z,97498.05
2018-10-03T01:28:49.874Z,97505.28
2018-10-03T01:29:21.454Z,97507.87
2018-10-03T01:29:53.059Z,97505.78
2018-10-03T01:30:24.647Z,97499.44
2018-10-03T01:30:56.227Z,97500.25
2018-10-03T01:31:27.822Z,97508.80
2018-10-03T01:31:59.410Z,97507.53
2018-10-03T01:32:31.017Z,97502.84
2018-10-03T01:33:02.616Z,97503.75
2018-10-03T01:33:34.211Z,97505.84
2018-10-03T01:34:05.800Z,97511.02
2018-10-03T01:34:37.379Z,97514.87
2018-10-03T01:35:08.982Z,97502.95
2018-10-03T01:35:40.627Z,97503.37
2018-10-03T01:36:12.207Z,97500.06
2018-10-03T01:36:43.810Z,97504.30
2018-10-03T01:37:15.418Z,97505.14
2018-10-03T01:37:47.011Z,97500.03
2018-10-03T01:38:18.618Z,97506.88
2018-10-03T01:38:50.226Z,97503.45
2018-10-03T01:39:21.824Z,97509.02
2018-10-03T01:39:53.417Z,97501.77
2018-10-03T01:40:25.025Z,97504.39
2018-10-03T01:40:56.620Z,97507.79
2018-10-03T01:41:28.217Z,97511.65
2018-10-03T01:41:59.827Z,97512.93
2018-10-03T01:42:31.420Z,97510.41
2018-10-03T01:43:03.027Z,97512.53
2018-10-03T01:43:34.611Z,97519.77
2018-10-03T01:44:06.201Z,97514.73
2018-10-03T01:44:37.812Z,97519.37
2018-10-03T01:45:09.414Z,97525.40
2018-10-03T01:45:41.034Z,97524.14
2018-10-03T01:46:12.629Z,97519.91
2018-10-03T01:46:44.222Z,97519.52
2018-10-03T01:47:15.816Z,97524.21
2018-10-03T01:47:47.432Z,97522.56
2018-10-03T01:48:19.034Z,97523.00
2018-10-03T01:48:50.641Z,97525.16
2018-10-03T01:49:22.245Z,97513.66
2018-10-03T01:49:53.844Z,97515.43
2018-10-03T01:50:25.440Z,97518.01
2018-10-03T01:50:57.071Z,97518.45
2018-10-03T01:51:28.678Z,97510.34
2018-10-03T01:52:00.283Z,97510.82
2018-10-03T01:52:31.876Z,97515.09
2018-10-03T01:53:03.468Z,97520.22
2018-10-03T01:53:35.064Z,97518.52
2018-10-03T01:54:06.646Z,97524.50
2018-10-03T01:54:38.255Z,97519.84
2018-10-03T01:55:09.853Z,97525.45
2018-10-03T01:55:41.430Z,97522.91
2018-10-03T01:56:13.048Z,97512.66
2018-10-03T01:56:44.628Z,97526.74
2018-10-03T01:57:16.220Z,97521.20
2018-10-03T01:57:47.813Z,97521.63
2018-10-03T01:58:19.412Z,97517.36
2018-10-03T01:58:51.004Z,97525.09
2018-10-03T01:59:22.600Z,97520.36
2018-10-03T01:59:54.196Z,97524.60
2018-10-03T02:00:25.799Z,97530.58
2018-10-03T02:00:57.430Z,97524.16
2018-10-03T02:01:29.025Z,97525.88
2018-10-03T02:02:00.607Z,97535.70
2018-10-03T02:02:32.201Z,97519.48
2018-10-03T02:03:03.801Z,97520.34
2018-10-03T02:03:35.395Z,97522.91
2018-10-03T02:04:06.993Z,97529.72
2018-10-03T02:04:38.593Z,97528.42
2018-10-03T02:05:10.208Z,97530.13
2018-10-03T02:05:41.797Z,97525.84
2018-10-03T02:06:13.430Z,97535.19
2018-10-03T02:06:45.034Z,97526.22
2018-10-03T02:07:16.628Z,97533.45
2018-10-03T02:07:48.231Z,97539.85
2018-10-03T02:08:19.834Z,97536.42
2018-10-03T02:08:51.425Z,97529.19
2018-10-03T02:09:54.340Z,97530.37
2018-10-03T02:10:25.947Z,97533.37
2018-10-03T02:10:57.581Z,97515.45
2018-10-03T02:11:29.170Z,97527.81
2018-10-03T02:12:00.768Z,97523.62
2018-10-03T02:12:32.369Z,97528.23
2018-10-03T02:13:03.964Z,97523.95
2018-10-03T02:13:35.552Z,97519.25
2018-10-03T02:14:07.153Z,97520.06
2018-10-03T02:14:38.780Z,97524.32
2018-10-03T02:15:10.385Z,97517.46
2018-10-03T02:15:41.983Z,97520.86
2018-10-03T02:16:13.614Z,97518.30
2018-10-03T02:16:45.208Z,97516.11
2018-10-03T02:17:16.819Z,97522.49
2018-10-03T02:17:48.408Z,97525.05
2018-10-03T02:18:19.990Z,97519.91
2018-10-03T02:18:51.585Z,97529.30
2018-10-03T02:19:23.191Z,97519.86
2018-10-03T02:19:54.770Z,97519.86
2018-10-03T02:20:26.371Z,97513.95
2018-10-03T02:20:57.979Z,97515.58
2018-10-03T02:21:29.612Z,97517.72
2018-10-03T02:22:01.219Z,97519.44
2018-10-03T02:22:32.816Z,97516.44
2018-10-03T02:23:04.413Z,97514.67
2018-10-03T02:23:36.256Z,97526.19
2018-10-03T02:24:07.848Z,97514.58
2018-10-03T02:24:39.455Z,97524.29
2018-10-03T02:25:11.052Z,97521.29
2018-10-03T02:25:42.654Z,97517.83
2018-10-03T02:26:14.292Z,97512.23
2018-10-03T02:26:45.893Z,97515.66
2018-10-03T02:27:17.488Z,97515.20
2018-10-03T02:27:49.090Z,97512.62
2018-10-03T02:28:20.671Z,97523.23
2018-10-03T02:28:52.265Z,97523.70
2018-10-03T02:29:23.870Z,97518.58
2018-10-03T02:29:55.482Z,97522.38
2018-10-03T02:30:27.087Z,97521.95
2018-10-03T02:30:58.701Z,97518.53
2018-10-03T02:31:30.416Z,97522.79
2018-10-03T02:32:02.013Z,97514.27
2018-10-03T02:32:33.605Z,97521.51
2018-10-03T02:33:05.183Z,97521.07
2018-10-03T02:33:36.833Z,97513.83
2018-10-03T02:34:08.435Z,97524.08
2018-10-03T02:34:40.028Z,97515.97
2018-10-03T02:35:11.625Z,97516.81
2018-10-03T02:35:43.220Z,97520.62
2018-10-03T02:36:14.831Z,97517.23
2018-10-03T02:36:46.452Z,97521.42
2018-10-03T02:37:18.049Z,97519.70
2018-10-03T02:37:49.644Z,97522.70
2018-10-03T02:38:21.236Z,97523.61
2018-10-03T02:38:52.824Z,97521.05
2018-10-03T02:39:24.434Z,97519.35
2018-10-03T02:39:56.066Z,97515.09
2018-10-03T02:40:27.671Z,97516.37
2018-10-03T02:40:59.284Z,97523.21
2018-10-03T02:41:30.895Z,97521.51
2018-10-03T02:42:02.496Z,97519.38
2018-10-03T02:42:34.109Z,97515.18
2018-10-03T02:43:05.700Z,97524.08
2018-10-03T02:43:37.293Z,97521.14
2018-10-03T02:44:08.906Z,97521.60
2018-10-03T02:44:40.500Z,97521.58
2018-10-03T02:45:12.092Z,97521.58
2018-10-03T02:45:43.693Z,97526.70
2018-10-03T02:46:15.274Z,97525.00
2018-10-03T02:46:46.893Z,97530.13
2018-10-03T02:47:18.489Z,97530.55
2018-10-03T02:47:50.096Z,97527.14
2018-10-03T02:48:21.703Z,97546.77
2018-10-03T02:48:53.307Z,97522.44
2018-10-03T02:49:24.906Z,97520.67
2018-10-03T02:49:56.529Z,97527.07
2018-10-03T02:50:28.125Z,97528.42
2018-10-03T02:50:59.730Z,97522.42
2018-10-03T02:51:31.363Z,97531.50
2018-10-03T02:52:02.960Z,97531.00
2018-10-03T02:52:34.553Z,97536.56
2018-10-03T02:53:06.158Z,97541.31
2018-10-03T02:53:37.756Z,97542.63
2018-10-03T02:54:09.348Z,97533.30
2018-10-03T02:54:40.944Z,97526.48
2018-10-03T02:55:12.541Z,97535.46
2018-10-03T02:55:44.147Z,97538.87
2018-10-03T02:56:15.745Z,97544.00
2018-10-03T02:56:47.364Z,97544.02
2018-10-03T02:57:18.974Z,97540.66
2018-10-03T02:57:50.569Z,97542.39
2018-10-03T02:58:22.160Z,97545.88
2018-10-03T02:58:53.753Z,97538.20
2018-10-03T02:59:25.358Z,97571.05
2018-10-03T02:59:56.934Z,97540.34
2018-10-03T03:00:28.524Z,97542.91
2018-10-03T03:01:00.118Z,97545.09
2018-10-03T03:01:31.764Z,97538.70
2018-10-03T03:02:03.361Z,97539.66
2018-10-03T03:02:34.952Z,97546.83
2018-10-03T03:03:06.544Z,97546.90
2018-10-03T03:03:38.154Z,97548.20
2018-10-03T03:04:09.762Z,97545.64
2018-10-03T03:04:41.348Z,97541.80
2018-10-03T03:05:12.940Z,97550.36
2018-10-03T03:05:44.524Z,97553.81
2018-10-03T03:06:16.127Z,97546.16
2018-10-03T03:06:47.748Z,97556.00
2018-10-03T03:07:19.340Z,97556.47
2018-10-03T03:07:50.937Z,97549.66
2018-10-03T03:08:22.580Z,97552.25
2018-10-03T03:08:54.204Z,97552.72
2018-10-03T03:09:25.811Z,97552.76
2018-10-03T03:09:57.405Z,97551.83
2018-10-03T03:10:28.996Z,97565.98
2018-10-03T03:11:00.589Z,97557.02
2018-10-03T03:11:32.185Z,97552.36
2018-10-03T03:12:03.814Z,97551.97
2018-10-03T03:12:35.419Z,97554.55
2018-10-03T03:13:07.030Z,97551.14
2018-10-03T03:13:38.621Z,97545.25
2018-10-03T03:14:10.376Z,97556.70
2018-10-03T03:14:41.981Z,97552.88
2018-10-03T03:15:13.563Z,97554.16
2018-10-03T03:15:45.158Z,97550.81
2018-10-03T03:16:16.749Z,97551.23
2018-10-03T03:16:48.369Z,97560.19
2018-10-03T03:17:19.959Z,97558.48
2018-10-03T03:17:51.558Z,97555.05
2018-10-03T03:18:23.153Z,97554.20
2018-10-03T03:18:54.759Z,97562.73
2018-10-03T03:19:26.361Z,97557.22
2018-10-03T03:19:57.966Z,97563.67
2018-10-03T03:20:29.560Z,97550.83
2018-10-03T03:21:01.167Z,97561.05
2018-10-03T03:21:32.750Z,97557.62
2018-10-03T03:22:04.372Z,97558.48
2018-10-03T03:22:35.973Z,97560.19
2018-10-03T03:23:07.583Z,97555.86
2018-10-03T03:23:39.192Z,97556.28
2018-10-03T03:24:10.780Z,97554.16
2018-10-03T03:24:42.366Z,97549.44
2018-10-03T03:25:13.961Z,97559.24
2018-10-03T03:25:45.552Z,97556.66
2018-10-03T03:26:17.154Z,97558.36
2018-10-03T03:26:48.790Z,97561.31
2018-10-03T03:27:20.394Z,97566.44
2018-10-03T03:27:51.988Z,97562.20
2018-10-03T03:28:23.597Z,97563.92
2018-10-03T03:28:55.192Z,97571.20
2018-10-03T03:29:26.789Z,97569.08
2018-10-03T03:29:58.381Z,97565.75
2018-10-03T03:30:29.986Z,97567.04
2018-10-03T03:31:01.590Z,97564.15
2018-10-03T03:31:33.184Z,97567.97
2018-10-03T03:32:04.814Z,97569.27
2018-10-03T03:32:36.404Z,97574.02
2018-10-03T03:33:08.000Z,97565.92
2018-10-03T03:33:39.603Z,97566.00
2018-10-03T03:34:11.183Z,97567.84
2018-10-03T03:34:42.772Z,97575.06
2018-10-03T03:35:14.375Z,97575.52
2018-10-03T03:35:45.968Z,97569.14
2018-10-03T03:36:17.559Z,97561.53
2018-10-03T03:36:49.139Z,97578.62
2018-10-03T03:37:20.742Z,97571.83
2018-10-03T03:37:52.344Z,97570.14
2018-10-03T03:38:23.922Z,97580.40
2018-10-03T03:38:55.508Z,97572.70
2018-10-03T03:39:27.105Z,97568.43
2018-10-03T03:39:58.691Z,97573.12
2018-10-03T03:40:30.280Z,97548.55
2018-10-03T03:41:01.882Z,97577.73
2018-10-03T03:41:33.488Z,97590.52
2018-10-03T03:42:05.108Z,97564.86
2018-10-03T03:42:36.691Z,97578.06
2018-10-03T03:43:08.294Z,97573.36
2018-10-03T03:43:39.890Z,97567.72
2018-10-03T03:44:11.484Z,97576.59
2018-10-03T03:44:43.072Z,97574.44
2018-10-03T03:45:14.657Z,97574.37
2018-10-03T03:45:46.249Z,97562.78
2018-10-03T03:46:17.840Z,97576.39
2018-10-03T03:46:49.426Z,97566.08
2018-10-03T03:47:21.055Z,97573.32
2018-10-03T03:47:52.653Z,97573.67
2018-10-03T03:48:24.249Z,97564.30
2018-10-03T03:48:55.841Z,97568.55
2018-10-03T03:49:27.437Z,97566.85
2018-10-03T03:49:59.025Z,97571.53
2018-10-03T03:50:30.631Z,97569.39
2018-10-03T03:51:02.248Z,97575.36
2018-10-03T03:51:33.846Z,97570.64
2018-10-03T03:52:05.475Z,97572.73
2018-10-03T03:52:37.068Z,97578.25
2018-10-03T03:53:08.674Z,97568.85
2018-10-03T03:53:40.273Z,97562.91
2018-10-03T03:54:11.891Z,97576.46
2018-10-03T03:54:43.536Z,97571.30
2018-10-03T03:55:15.133Z,97571.67
2018-10-03T03:55:46.746Z,97575.09
2018-10-03T03:56:18.335Z,97560.98
2018-10-03T03:56:49.942Z,97571.98
2018-10-03T03:57:21.574Z,97572.78
2018-10-03T03:57:53.183Z,97571.43
2018-10-03T03:58:24.781Z,97573.52
2018-10-03T03:58:56.381Z,97570.53
2018-10-03T03:59:27.973Z,97580.78
2018-10-03T03:59:59.585Z,97576.52
2018-10-03T04:00:31.180Z,97573.94
2018-10-03T04:01:02.770Z,97577.70
2018-10-03T04:01:34.364Z,97576.84
2018-10-03T04:02:06.014Z,97576.36
2018-10-03T04:02:37.638Z,97581.00
2018-10-03T04:03:09.237Z,97575.77
2018-10-03T04:03:40.825Z,97580.09
2018-10-03T04:04:12.407Z,97576.34
2018-10-03T04:04:43.995Z,97575.66
2018-10-03T04:05:15.592Z,97580.89
2018-10-03T04:05:47.199Z,97574.22
2018-10-03T04:06:18.794Z,97576.88
2018-10-03T04:06:50.401Z,97575.67
2018-10-03T04:07:22.035Z,97569.70
2018-10-03T04:07:53.632Z,97574.32
2018-10-03T04:08:25.228Z,97577.30
2018-10-03T04:08:56.817Z,97577.70
2018-10-03T04:09:28.412Z,97573.45
2018-10-03T04:10:00.014Z,97577.30
2018-10-03T04:10:31.608Z,97593.10
2018-10-03T04:11:03.190Z,97587.61
2018-10-03T04:11:34.791Z,97580.38
2018-10-03T04:12:06.389Z,97583.83
2018-10-03T04:12:38.000Z,97588.09
2018-10-03T04:13:09.614Z,97587.64
2018-10-03T04:13:41.218Z,97582.16
2018-10-03T04:14:12.824Z,97583.39
2018-10-03T04:14:44.430Z,97584.67
2018-10-03T04:15:16.025Z,97585.58
2018-10-03T04:15:47.620Z,97584.31
2018-10-03T04:16:19.213Z,97584.34
2018-10-03T04:16:50.801Z,97587.38
2018-10-03T04:17:22.428Z,97580.59
2018-10-03T04:17:54.020Z,97586.63
2018-10-03T04:18:25.613Z,97582.40
2018-10-03T04:18:57.202Z,97591.41
2018-10-03T04:19:28.793Z,97585.47
2018-10-03T04:20:00.402Z,97587.19
2018-10-03T04:20:32.001Z,97587.60
2018-10-03T04:21:03.609Z,97586.81
2018-10-03T04:21:35.191Z,97589.28
2018-10-03T04:22:06.784Z,97588.43
2018-10-03T04:22:38.415Z,97585.80
2018-10-03T04:23:10.019Z,97589.13
2018-10-03T04:23:41.626Z,97585.77
2018-10-03T04:24:13.230Z,97589.98
2018-10-03T04:24:44.832Z,97586.99
2018-10-03T04:25:16.428Z,97577.62
2018-10-03T04:25:48.039Z,97582.72
2018-10-03T04:26:19.628Z,97589.98
2018-10-03T04:26:51.235Z,97587.42
2018-10-03T04:27:22.881Z,97589.11
2018-10-03T04:27:54.486Z,97584.48
2018-10-03T04:28:26.090Z,97582.73
2018-10-03T04:28:57.684Z,97584.92
2018-10-03T04:29:29.266Z,97588.34
2018-10-03T04:30:00.864Z,97581.10
2018-10-03T04:30:32.456Z,97581.52
2018-10-03T04:31:04.052Z,97583.66
2018-10-03T04:31:35.644Z,97584.52
2018-10-03T04:32:07.240Z,97584.52
2018-10-03T04:32:38.866Z,97578.98
2018-10-03T04:33:10.456Z,97588.80
2018-10-03T04:33:42.048Z,97583.68
2018-10-03T04:34:13.660Z,97581.17
2018-10-03T04:34:45.267Z,97580.33
2018-10-03T04:35:16.875Z,97590.14
2018-10-03T04:35:48.550Z,97586.73
2018-10-03T04:36:20.121Z,97593.98
2018-10-03T04:36:51.734Z,97581.19
2018-10-03T04:37:23.350Z,97580.75
2018-10-03T04:37:54.968Z,97577.33
2018-10-03T04:38:26.560Z,97579.05
2018-10-03T04:38:58.170Z,97585.01
2018-10-03T04:39:29.774Z,97588.00
2018-10-03T04:40:01.355Z,97584.17
2018-10-03T04:40:32.934Z,97588.43
2018-10-03T04:41:04.520Z,97583.31
2018-10-03T04:41:36.108Z,97596.55
2018-10-03T04:42:07.713Z,97585.45
2018-10-03T04:42:39.471Z,97589.28
2018-10-03T04:43:11.064Z,97589.28
2018-10-03T04:43:42.667Z,97585.81
2018-10-03T04:44:14.259Z,97590.98
2018-10-03T04:44:45.871Z,97593.11
2018-10-03T04:45:17.465Z,97583.73
2018-10-03T04:45:49.057Z,97601.17
2018-10-03T04:46:20.654Z,97589.70
2018-10-03T04:46:52.248Z,97593.13
2018-10-03T04:47:23.840Z,97589.28
2018-10-03T04:47:55.466Z,97596.11
2018-10-03T04:48:27.060Z,97594.41
2018-10-03T04:48:58.648Z,97588.84
2018-10-03T04:49:30.275Z,97589.64
2018-10-03T04:50:01.875Z,97594.25
2018-10-03T04:50:33.482Z,97599.77
2018-10-03T04:51:05.075Z,97597.20
2018-10-03T04:51:36.678Z,97598.04
2018-10-03T04:52:08.274Z,97595.87
2018-10-03T04:52:39.871Z,97603.97
2018-10-03T04:53:11.494Z,97607.02
2018-10-03T04:53:43.103Z,97612.55
2018-10-03T04:54:14.700Z,97597.22
2018-10-03T04:54:46.289Z,97604.91
2018-10-03T04:55:17.894Z,97601.13
2018-10-03T04:55:49.484Z,97595.58
2018-10-03T04:56:21.063Z,97601.14
2018-10-03T04:56:52.658Z,97600.28
2018-10-03T04:57:24.248Z,97596.02
2018-10-03T04:57:55.864Z,97584.94
2018-10-03T04:58:27.485Z,97600.72
2018-10-03T04:58:59.080Z,97578.13
2018-10-03T04:59:30.682Z,97593.90
2018-10-03T05:00:02.310Z,97592.22
2018-10-03T05:00:33.927Z,97597.41
2018-10-03T05:01:05.535Z,97600.37
2018-10-03T05:01:37.133Z,97586.74
2018-10-03T05:02:08.733Z,97591.87
2018-10-03T05:02:40.312Z,97592.30
2018-10-03T05:03:11.947Z,97603.40
2018-10-03T05:03:43.544Z,97594.91
2018-10-03T05:04:15.133Z,97586.42
2018-10-03T05:04:46.725Z,97602.54
2018-10-03T05:05:18.335Z,97594.42
2018-10-03T05:05:49.928Z,97604.64
2018-10-03T05:06:21.524Z,97599.94
2018-10-03T05:06:53.117Z,97596.14
2018-10-03T05:07:24.713Z,97607.57
2018-10-03T05:07:56.304Z,97607.13
2018-10-03T05:08:27.938Z,97609.27
2018-10-03T05:08:59.533Z,97604.16
2018-10-03T05:09:31.128Z,97607.57
2018-10-03T05:10:02.730Z,97605.08
2018-10-03T05:10:34.320Z,97609.78
2018-10-03T05:11:05.914Z,97602.52
2018-10-03T05:11:37.616Z,97610.20
2018-10-03T05:12:09.212Z,97600.38
2018-10-03T05:12:40.822Z,97597.86
2018-10-03T05:13:12.455Z,97604.23
2018-10-03T05:13:44.049Z,97609.38
2018-10-03T05:14:15.644Z,97601.75
2018-10-03T05:14:47.236Z,97602.59
2018-10-03T05:15:18.829Z,97603.89
2018-10-03T05:15:50.411Z,97600.03
2018-10-03T05:16:21.995Z,97611.98
2018-10-03T05:16:53.584Z,97608.16
2018-10-03T05:17:25.172Z,97610.72
2018-10-03T05:17:56.765Z,97608.18
2018-10-03T05:18:28.375Z,97609.95
2018-10-03T05:18:59.964Z,97605.69
2018-10-03T05:19:31.552Z,97601.01
2018-10-03T05:20:03.163Z,97609.95
2018-10-03T05:20:34.742Z,97606.53
2018-10-03T05:21:06.336Z,97606.11
2018-10-03T05:21:37.938Z,97612.02
2018-10-03T05:22:09.539Z,97610.79
2018-10-03T05:22:41.115Z,97613.73
2018-10-03T05:23:12.732Z,97615.44
2018-10-03T05:23:44.310Z,97607.34
2018-10-03T05:24:15.916Z,97619.27
2018-10-03T05:24:47.523Z,97613.30
2018-10-03T05:25:19.119Z,97606.48
2018-10-03T05:25:50.740Z,97610.73
2018-10-03T05:26:22.345Z,97613.72
2018-10-03T05:26:53.939Z,97612.92
2018-10-03T05:27:25.542Z,97617.19
2018-10-03T05:27:57.248Z,97619.74
2018-10-03T05:28:28.805Z,97612.92
2018-10-03T05:29:00.412Z,97613.36
2018-10-03T05:29:32.009Z,97611.64
2018-10-03T05:30:03.604Z,97609.95
2018-10-03T05:30:35.197Z,97606.97
2018-10-03T05:31:06.789Z,97611.24
2018-10-03T05:31:38.400Z,97612.88
2018-10-03T05:32:10.007Z,97616.26
2018-10-03T05:32:41.627Z,97606.88
2018-10-03T05:33:13.218Z,97606.46
2018-10-03T05:33:44.847Z,97609.09
2018-10-03T05:34:16.462Z,97606.44
2018-10-03T05:34:48.056Z,97611.59
2018-10-03T05:35:19.658Z,97608.56
2018-10-03T05:35:51.255Z,97608.14
2018-10-03T05:36:22.858Z,97609.44
2018-10-03T05:36:54.467Z,97611.14
2018-10-03T05:37:26.051Z,97611.14
2018-10-03T05:37:57.659Z,97614.97
2018-10-03T05:38:29.272Z,97615.77
2018-10-03T05:39:00.868Z,97609.38
2018-10-03T05:39:32.473Z,97617.47
2018-10-03T05:40:04.076Z,97617.89
2018-10-03T05:40:35.659Z,97618.75
2018-10-03T05:41:07.253Z,97630.69
2018-10-03T05:41:38.849Z,97628.13
2018-10-03T05:42:10.426Z,97629.84
2018-10-03T05:42:42.034Z,97635.81
2018-10-03T05:43:13.638Z,97629.84
2018-10-03T05:43:45.242Z,97636.65
2018-10-03T05:44:16.823Z,97619.17
2018-10-03T05:44:48.432Z,97633.67
2018-10-03T05:45:20.024Z,97634.53
2018-10-03T05:45:51.621Z,97639.65
2018-10-03T05:46:23.248Z,97635.38
2018-10-03T05:46:54.854Z,97628.97
2018-10-03T05:47:26.458Z,97642.19
2018-10-03T05:47:58.043Z,97637.91
2018-10-03T05:48:29.681Z,97641.37
2018-10-03T05:49:01.248Z,97643.45
2018-10-03T05:49:32.826Z,97641.31
2018-10-03T05:50:04.431Z,97641.25
2018-10-03T05:50:36.035Z,97647.66
2018-10-03T05:51:07.642Z,97649.34
2018-10-03T05:51:39.241Z,97648.48
2018-10-03T05:52:10.833Z,97651.48
2018-10-03T05:52:42.449Z,97640.83
2018-10-03T05:53:14.044Z,97638.34
2018-10-03T05:53:45.674Z,97646.85
2018-10-03T05:54:17.265Z,97637.42
2018-10-03T05:54:48.938Z,97636.13
2018-10-03T05:55:20.481Z,97635.69
2018-10-03T05:55:52.082Z,97647.20
2018-10-03T05:56:23.679Z,97647.63
2018-10-03T05:56:55.268Z,97638.67
2018-10-03T05:57:26.847Z,97639.05
2018-10-03T05:57:58.426Z,97645.91
2018-10-03T05:58:30.035Z,97649.27
2018-10-03T05:59:01.629Z,97657.80
2018-10-03T05:59:33.231Z,97658.63
2018-10-03T06:00:04.832Z,97651.39
2018-10-03T06:00:36.424Z,97659.41
2018-10-03T06:01:08.013Z,97660.95
2018-10-03T06:01:39.607Z,97655.73
2018-10-03T06:02:11.231Z,97658.24
2018-10-03T06:02:42.836Z,97650.08
2018-10-03T06:03:14.447Z,97657.73
2018-10-03T06:03:46.072Z,97656.45
2018-10-03T06:04:17.679Z,97663.70
2018-10-03T06:04:49.282Z,97655.55
2018-10-03T06:05:20.890Z,97670.10
2018-10-03T06:05:52.498Z,97673.52
2018-10-03T06:06:24.110Z,97670.54
2018-10-03T06:06:55.718Z,97669.27
2018-10-03T06:07:27.306Z,97671.84
2018-10-03T06:07:58.915Z,97666.70
2018-10-03T06:08:30.508Z,97659.03
2018-10-03T06:09:02.129Z,97665.88
2018-10-03T06:09:33.724Z,97667.20
2018-10-03T06:10:05.331Z,97662.52
2018-10-03T06:10:36.931Z,97668.06
2018-10-03T06:11:08.525Z,97665.52
2018-10-03T06:11:40.109Z,97664.26